Latest Coastal Weather Observations for Mandora

IDW60701

Issued at 11:15 pm WST Saturday 26 July 2014 (issued every 10 minutes, with the page automatically refreshed every 10 minutes)

About coastal observations | Map of coastal stations | Coastal observations for WA | Marine services | Other Formats
Station Details ID: 004019 Name: MANDORA Lat: -19.74 Lon: 120.84 Height: 7.5 m
Data from the previous 72 hours. | See also: Recent months at Mandora
Date/Time
WST
Temp

°C
Wind Pressure Rain
since 9am
mm
Weather Cloud Vis
km
Sea
Height
m
Swell
Dir
 
Speed
knots
Gust
knots
hPa Trend Height
m
Period
s
Dir
26/11:00pm 16.1 SSW 6 7 1019.0 - 0.0 - - - - - - -
26/10:30pm 16.4 S 7 8 1019.0 - 0.0 - - - - - - -
26/10:00pm 17.1 SSW 7 8 1019.1 - 0.0 - - - - - - -
26/09:30pm 17.4 SSW 8 9 1019.3 - 0.0 - - - - - - -
26/09:00pm 17.0 SSW 7 8 1019.3 - 0.0 - - - - - - -
26/08:30pm 17.0 SSW 7 8 1019.3 - 0.0 - - - - - - -
26/08:00pm 17.2 SW 7 8 1019.1 - 0.0 - - - - - - -
26/07:30pm 17.9 SW 6 7 1018.9 - 0.0 - - - - - - -
26/07:00pm 18.0 SW 6 7 1018.7 - 0.0 - - - - - - -
26/06:30pm 19.6 WSW 6 7 1018.6 - 0.0 - - - - - - -
26/06:00pm 21.2 W 6 7 1018.4 - 0.0 - - - - - - -
26/05:30pm 23.7 W 6 8 1018.2 - 0.0 - - - - - - -
26/05:00pm 25.8 W 8 11 1018.1 - 0.0 - - - - - - -
26/04:30pm 27.0 WNW 8 13 1018.0 - 0.0 - - - - - - -
26/04:00pm 28.0 NW 9 11 1017.8 - 0.0 - - - - - - -
26/03:30pm 28.4 NW 8 11 1017.8 - 0.0 - - - - - - -
26/03:00pm 29.0 NNW 8 12 1017.6 - 0.0 - - - - - - -
26/02:30pm 29.0 NNW 6 11 1017.6 - 0.0 - - - - - - -
26/02:00pm 29.4 N 6 11 1017.8 - 0.0 - - - - - - -
26/01:30pm 28.9 NNE 4 6 1018.1 - 0.0 - - - - - - -
26/01:00pm 29.1 ENE 5 11 1018.6 - 0.0 - - - - - - -
26/12:30pm 29.3 ENE 5 8 1019.1 - 0.0 - - - - - - -
26/12:00pm 28.3 ESE 7 11 1019.7 - 0.0 - - - - - - -
26/11:30am 27.9 E 7 13 1020.3 - 0.0 - - - - - - -
26/11:00am 27.1 E 8 12 1020.7 - 0.0 - - - - - - -
26/10:30am 25.8 E 9 15 1021.0 - 0.0 - - - - - - -
26/10:00am 24.6 ESE 10 16 1021.2 - 0.0 - - - - - - -
26/09:30am 23.6 E 11 17 1021.4 - 0.0 - - - - - - -
26/09:00am 21.7 E 10 19 1021.4 - 0.0 - - - - - - -
26/08:30am 19.7 ESE 11 16 1021.1 - 0.0 - - - - - - -
26/08:00am 17.2 ESE 9 14 1020.8 - 0.0 - - - - - - -
26/07:30am 14.3 SE 9 12 1020.5 - 0.0 - - - - - - -
26/07:00am 12.5 SE 7 10 1020.2 - 0.0 - - - - - - -
26/06:30am 12.2 SE 8 11 1019.7 - 0.0 - - - - - - -
26/06:00am 12.5 ESE 8 11 1019.2 - 0.0 - - - - - - -
26/05:30am 12.6 ESE 8 11 1019.1 - 0.0 - - - - - - -
26/05:00am 13.2 SE 7 11 1018.8 - 0.0 - - - - - - -
26/04:30am 13.5 SE 8 11 1018.8 - 0.0 - - - - - - -
26/04:00am 14.0 SE 8 14 1018.8 - 0.0 - - - - - - -
26/03:30am 14.6 SE 8 14 1018.8 - 0.0 - - - - - - -
26/03:00am 14.4 SE 8 13 1018.8 - 0.0 - - - - - - -
26/02:30am 14.2 SE 7 10 1018.7 - 0.0 - - - - - - -
26/02:00am 14.1 SE 7 10 1018.9 - 0.0 - - - - - - -
26/01:30am 14.0 SE 7 9 1019.0 - 0.0 - - - - - - -
26/01:00am 14.1 SE 7 11 1019.2 - 0.0 - - - - - - -
26/12:30am 13.9 SSE 6 8 1019.3 - 0.0 - - - - - - -
26/12:00am 14.0 SSE 6 9 1019.3 - 0.0 - - - - - - -
 
Date/Time
WST
Temp

°C
Wind Pressure Rain
since 9am
mm
Weather Cloud Vis
km
Sea
Height
m
Swell
Dir
 
Speed
knots
Gust
knots
hPa Trend Height
m
Period
s
Dir
25/11:30pm 14.0 SSE 6 8 1019.1 - 0.0 - - - - - - -
25/11:00pm 14.1 SSE 7 9 1019.4 - 0.0 - - - - - - -
25/10:30pm 14.0 SSE 8 10 1019.4 - 0.0 - - - - - - -
25/10:00pm 14.0 SSE 7 9 1019.5 - 0.0 - - - - - - -
25/09:30pm 14.3 SSE 7 9 1019.6 - 0.0 - - - - - - -
25/09:00pm 13.8 SSE 5 7 1019.5 - 0.0 - - - - - - -
25/08:30pm 11.7 SE 5 6 1019.4 - 0.0 - - - - - - -
25/08:00pm 11.8 SSE 5 6 1019.1 - 0.0 - - - - - - -
25/07:30pm 12.9 SE 4 5 1018.8 - 0.0 - - - - - - -
25/07:00pm 13.9 SE 3 6 1018.7 - 0.0 - - - - - - -
25/06:30pm 15.4 CALM 0 0 1018.4 - 0.0 - - - - - - -
25/06:00pm 18.8 SE 4 6 1018.0 - 0.0 - - - - - - -
25/05:30pm 22.2 ESE 5 7 1017.8 - 0.0 - - - - - - -
25/05:00pm 24.5 ESE 6 11 1017.8 - 0.0 - - - - - - -
25/04:30pm 25.5 ESE 7 13 1017.7 - 0.0 - - - - - - -
25/04:00pm 25.9 E 6 10 1017.7 - 0.0 - - - - - - -
25/03:30pm 26.5 E 6 11 1017.6 - 0.0 - - - - - - -
25/03:00pm 26.5 E 7 13 1017.5 - 0.0 - - - - - - -
25/02:30pm 26.4 ESE 7 13 1017.5 - 0.0 - - - - - - -
25/02:00pm 26.5 E 7 11 1017.8 - 0.0 - - - - - - -
25/01:30pm 25.5 ESE 8 21 1018.1 - 0.0 - - - - - - -
25/01:00pm 25.3 E 9 14 1018.4 - 0.0 - - - - - - -
25/12:30pm 24.6 SE 12 20 1018.8 - 0.0 - - - - - - -
25/12:00pm 24.3 ESE 11 17 1019.4 - 0.0 - - - - - - -
25/11:30am 24.2 ESE 11 18 1019.9 - 0.0 - - - - - - -
25/11:00am 22.9 ESE 13 19 1020.1 - 0.0 - - - - - - -
25/10:30am 22.1 ESE 12 21 1020.4 - 0.0 - - - - - - -
25/10:00am 21.5 SE 12 18 1020.8 - 0.0 - - - - - - -
25/09:30am 20.3 SE 14 22 1021.0 - 0.0 - - - - - - -
25/09:15am 19.7 ESE 15 25 1021.1 - 0.0 - - - - - - -
25/09:00am 19.0 SE 14 23 1021.0 - 0.0 - - - - - - -
25/08:30am 17.1 SE 14 26 1020.7 - 0.0 - - - - - - -
25/08:00am 15.6 SE 12 18 1020.6 - 0.0 - - - - - - -
25/07:30am 14.3 SE 10 16 1020.3 - 0.0 - - - - - - -
25/07:00am 12.8 SE 8 13 1019.8 - 0.0 - - - - - - -
25/06:30am 12.5 SE 9 17 1019.2 - 0.0 - - - - - - -
25/06:00am 12.5 SE 9 14 1018.7 - 0.0 - - - - - - -
25/05:30am 12.6 SE 8 13 1018.3 - 0.0 - - - - - - -
25/05:00am 12.7 SE 8 13 1018.2 - 0.0 - - - - - - -
25/04:30am 12.8 SE 8 13 1018.0 - 0.0 - - - - - - -
25/04:00am 13.0 SSE 8 14 1017.9 - 0.0 - - - - - - -
25/03:30am 13.3 SSE 9 15 1017.9 - 0.0 - - - - - - -
25/03:00am 13.4 SSE 8 12 1017.9 - 0.0 - - - - - - -
25/02:30am 12.4 SSE 7 10 1017.9 - 0.0 - - - - - - -
25/02:00am 10.8 S 7 9 1018.1 - 0.0 - - - - - - -
25/01:30am 11.3 SSE 8 11 1018.1 - 0.0 - - - - - - -
25/01:00am 11.6 S 8 11 1018.3 - 0.0 - - - - - - -
25/12:30am 11.4 S 7 9 1018.6 - 0.0 - - - - - - -
25/12:00am 11.3 S 6 7 1018.7 - 0.0 - - - - - - -
 
Date/Time
WST
Temp

°C
Wind Pressure Rain
since 9am
mm
Weather Cloud Vis
km
Sea
Height
m
Swell
Dir
 
Speed
knots
Gust
knots
hPa Trend Height
m
Period
s
Dir
24/11:30pm 11.7 S 6 7 1018.8 - 0.0 - - - - - - -
24/11:00pm 12.9 SSE 7 9 1018.7 - 0.0 - - - - - - -
24/10:30pm 13.7 SSE 8 9 1018.7 - 0.0 - - - - - - -
24/10:00pm 14.5 SSE 9 12 1018.5 - 0.0 - - - - - - -
24/09:30pm 14.8 S 9 12 1018.6 - 0.0 - - - - - - -
24/09:00pm 14.5 S 8 11 1018.2 - 0.0 - - - - - - -
24/08:30pm 14.8 SSE 7 11 1017.9 - 0.0 - - - - - - -
24/08:00pm 15.4 SSE 7 9 1017.5 - 0.0 - - - - - - -
24/07:30pm 16.2 SSE 7 9 1017.3 - 0.0 - - - - - - -
24/07:00pm 17.7 SSE 6 9 1016.9 - 0.0 - - - - - - -
24/06:30pm 18.5 SSE 6 10 1016.5 - 0.0 - - - - - - -
24/06:00pm 19.8 SSE 6 8 1016.3 - 0.0 - - - - - - -
24/05:30pm 22.0 SSE 6 10 1016.1 - 0.0 - - - - - - -
24/05:00pm 23.7 SE 9 14 1016.0 - 0.0 - - - - - - -
24/04:30pm 24.6 SE 8 14 1016.0 - 0.0 - - - - - - -
24/04:00pm 25.1 SSE 9 13 1015.9 - 0.0 - - - - - - -
24/03:30pm 25.7 SE 10 15 1015.6 - 0.0 - - - - - - -
24/03:00pm 25.3 SE 11 16 1015.7 - 0.0 - - - - - - -
24/02:30pm 25.4 SSE 10 18 1016.0 - 0.0 - - - - - - -
24/02:00pm 25.0 SSE 10 18 1016.3 - 0.0 - - - - - - -
24/01:30pm 24.9 SSE 11 21 1016.5 - 0.0 - - - - - - -
24/01:00pm 24.5 SSE 12 19 1016.9 - 0.0 - - - - - - -
24/12:30pm 23.5 SE 13 20 1017.1 - 0.0 - - - - - - -
24/12:00pm 23.9 SE 11 19 1017.7 - 0.0 - - - - - - -
24/11:30am 23.5 SE 11 17 1018.3 - 0.0 - - - - - - -
24/11:00am 22.5 SE 13 21 1018.9 - 0.0 - - - - - - -
24/10:30am 22.1 SE 14 22 1019.4 - 0.0 - - - - - - -
24/10:00am 21.3 SE 15 22 1019.5 - 0.0 - - - - - - -
24/09:30am 20.9 SE 16 23 1019.4 - 0.0 - - - - - - -
24/09:14am 20.3 SE 15 26 1019.6 - 0.0 - - - - - - -
24/09:00am 19.9 SE 14 21 1019.5 - 0.0 - - - - - - -
24/08:30am 18.3 SE 12 19 1019.1 - 0.0 - - - - - - -
24/08:00am 16.4 SE 12 19 1018.7 - 0.0 - - - - - - -
24/07:30am 14.8 SE 9 15 1018.4 - 0.0 - - - - - - -
24/07:00am 12.6 SE 6 9 1018.2 - 0.0 - - - - - - -
24/06:30am 11.4 SE 6 8 1017.8 - 0.0 - - - - - - -
24/06:00am 11.8 SE 6 7 1017.5 - 0.0 - - - - - - -
24/05:30am 12.6 SSE 6 9 1017.3 - 0.0 - - - - - - -
24/05:00am 12.9 SSE 7 9 1017.1 - 0.0 - - - - - - -
24/04:30am 12.8 SSE 7 9 1017.0 - 0.0 - - - - - - -
24/04:00am 12.6 SSE 7 9 1017.0 - 0.0 - - - - - - -
24/03:30am 12.7 SSE 7 9 1017.0 - 0.0 - - - - - - -
24/03:00am 13.0 SSE 7 9 1016.9 - 0.0 - - - - - - -
24/02:30am 13.5 SSE 8 10 1016.9 - 0.0 - - - - - - -
24/02:00am 14.1 S 9 12 1016.8 - 0.0 - - - - - - -
24/01:30am 13.7 SSE 8 10 1016.7 - 0.0 - - - - - - -
24/01:00am 14.5 SSE 9 11 1016.7 - 0.0 - - - - - - -
24/12:30am 14.8 SE 8 10 1016.7 - 0.0 - - - - - - -
24/12:00am 13.5 ESE 7 8 1016.8 - 0.0 - - - - - - -
 
Date/Time
WST
Temp

°C
Wind Pressure Rain
since 9am
mm
Weather Cloud Vis
km
Sea
Height
m
Swell
Dir
 
Speed
knots
Gust
knots
hPa Trend Height
m
Period
s
Dir
23/11:30pm 14.1 ESE 6 7 1016.8 - 0.0 - - - - - - -

Other Formats:

Comma delimited format used in spreadsheet applications
http://www.bom.gov.au/fwo/IDW60701/IDW60701.94200.axf

JavaScript Object Notation format (JSON) in row-major order
http://www.bom.gov.au/fwo/IDW60701/IDW60701.94200.json